Time;durP1;ratioP1;P1;durP2;ratioP2;P2;SDS_P1;SDS_P2;PMS_P1;PMS_P2;Temp;Humidity;BMP_temperature;BMP_pressure;BME280_temperature;BME280_humidity;BME280_pressure;Samples;Min_cycle;Max_cycle;Signal;HPM_P1;HPM_P2
2021/08/22 00:00:19;;;;;;;0.32;0.30;;;19.20;99.90;;;;;;5034813;28;20025;-72
2021/08/22 00:02:45;;;;;;;2.55;1.10;;;19.00;99.90;;;;;;5052348;28;20031;-72
2021/08/22 00:05:11;;;;;;;0.20;0.17;;;18.70;99.90;;;;;;5052419;28;20025;-72
2021/08/22 00:07:37;;;;;;;0.20;0.20;;;18.70;99.90;;;;;;5034535;28;20035;-72
2021/08/22 00:10:04;;;;;;;0.20;0.20;;;18.80;99.90;;;;;;5034545;28;20366;-72
2021/08/22 00:12:29;;;;;;;1.35;0.85;;;18.70;99.90;;;;;;5052241;28;20055;-72
2021/08/22 00:14:55;;;;;;;1.25;0.98;;;18.70;99.90;;;;;;5034361;28;20028;-72
2021/08/22 00:17:21;;;;;;;0.17;0.17;;;18.70;99.90;;;;;;5052206;28;20017;-72
2021/08/22 00:19:47;;;;;;;0.10;0.10;;;18.60;99.90;;;;;;5051933;28;20029;-72
2021/08/22 00:24:42;;;;;;;0.10;0.10;;;18.70;99.90;;;;;;5049405;28;20056;-76
2021/08/22 00:27:08;;;;;;;1.10;0.68;;;18.70;99.90;;;;;;5034327;28;20376;-76
2021/08/22 00:29:34;;;;;;;0.55;0.55;;;18.80;99.90;;;;;;5051828;28;20476;-76
2021/08/22 00:32:01;;;;;;;0.20;0.20;;;18.80;99.90;;;;;;5052000;28;20039;-76
2021/08/22 00:34:27;;;;;;;0.10;0.10;;;18.90;99.90;;;;;;5034093;28;20388;-76
2021/08/22 00:36:54;;;;;;;0.15;0.15;;;19.00;99.90;;;;;;5033886;28;20031;-76
2021/08/22 00:39:21;;;;;;;1.02;1.00;;;19.10;99.90;;;;;;5033687;28;20033;-76
2021/08/22 00:41:46;;;;;;;0.10;0.10;;;19.20;99.90;;;;;;5017533;28;20021;-76
2021/08/22 00:44:12;;;;;;;0.25;0.25;;;19.30;99.90;;;;;;5051669;28;20021;-76
2021/08/22 00:46:38;;;;;;;3.75;3.40;;;19.40;99.90;;;;;;5017366;28;20388;-76
2021/08/22 00:49:06;;;;;;;0.10;0.10;;;19.30;99.90;;;;;;5033845;28;20028;-75
2021/08/22 00:51:33;;;;;;;0.10;0.10;;;19.30;99.90;;;;;;5033992;28;20048;-76
2021/08/22 00:53:59;;;;;;;0.10;0.10;;;19.30;99.90;;;;;;5051717;28;20025;-76
2021/08/22 00:56:25;;;;;;;1.00;0.25;;;19.20;99.90;;;;;;5033984;28;20108;-76
2021/08/22 00:58:50;;;;;;;0.63;0.63;;;19.10;99.90;;;;;;5051792;28;20078;-76
2021/08/22 01:01:20;;;;;;;0.10;0.10;;;18.90;99.90;;;;;;5051754;28;20021;-76
2021/08/22 01:04:20;;;;;;;0.73;0.32;;;18.90;99.90;;;;;;5033789;28;20017;-76
2021/08/22 01:06:59;;;;;;;1.20;1.10;;;19.00;99.90;;;;;;5041194;28;20427;-76
2021/08/22 01:09:38;;;;;;;0.32;0.28;;;19.00;99.90;;;;;;5055537;28;20059;-76
2021/08/22 01:12:11;;;;;;;0.40;0.40;;;18.90;99.90;;;;;;5038062;28;20032;-76
2021/08/22 01:14:47;;;;;;;0.13;0.13;;;19.00;99.90;;;;;;5055461;28;20021;-76
2021/08/22 01:17:14;;;;;;;0.10;0.10;;;19.10;99.90;;;;;;5037678;28;20035;-76
2021/08/22 01:19:59;;;;;;;0.10;0.10;;;19.10;99.90;;;;;;5055268;28;20129;-75
2021/08/22 01:22:26;;;;;;;0.88;0.65;;;19.10;99.90;;;;;;5037406;28;20488;-76
2021/08/22 01:24:54;;;;;;;0.10;0.10;;;19.10;99.90;;;;;;5037447;28;20024;-76
2021/08/22 01:27:22;;;;;;;0.47;0.47;;;19.10;99.90;;;;;;5055389;28;20025;-76
2021/08/22 01:29:58;;;;;;;0.10;0.10;;;19.20;99.90;;;;;;5037160;28;20029;-76
2021/08/22 01:32:24;;;;;;;0.43;0.43;;;19.20;99.90;;;;;;5055366;28;20104;-76
2021/08/22 01:34:49;;;;;;;2.42;0.52;;;19.10;99.90;;;;;;5037376;28;20572;-76
2021/08/22 01:37:17;;;;;;;0.43;0.43;;;19.00;99.90;;;;;;5055200;28;20100;-76
2021/08/22 01:39:45;;;;;;;0.20;0.20;;;19.10;99.90;;;;;;5054761;28;20067;-76
2021/08/22 01:42:11;;;;;;;0.30;0.30;;;19.10;99.90;;;;;;5055081;28;20029;-76
2021/08/22 01:44:38;;;;;;;0.40;0.40;;;19.10;99.90;;;;;;5054885;28;20021;-76
2021/08/22 01:47:07;;;;;;;0.20;0.20;;;19.10;99.90;;;;;;5037025;28;20074;-76
2021/08/22 01:49:34;;;;;;;0.68;0.52;;;19.00;99.90;;;;;;5036671;28;20443;-76
2021/08/22 01:52:00;;;;;;;0.10;0.10;;;19.00;99.90;;;;;;5037043;28;20067;-76
2021/08/22 01:54:27;;;;;;;0.10;0.10;;;19.10;99.90;;;;;;5036930;28;20021;-76
2021/08/22 01:56:52;;;;;;;3.95;0.85;;;19.10;99.90;;;;;;5036950;28;20025;-76
2021/08/22 01:59:18;;;;;;;0.52;0.32;;;19.00;99.90;;;;;;5036535;28;20103;-76
2021/08/22 02:01:45;;;;;;;0.10;0.10;;;18.90;99.90;;;;;;5036880;28;20021;-76
2021/08/22 02:04:41;;;;;;;0.75;0.50;;;18.90;99.90;;;;;;5054404;28;20020;-76
2021/08/22 02:07:29;;;;;;;0.20;0.20;;;18.90;99.90;;;;;;5054805;28;20025;-76
2021/08/22 02:10:13;;;;;;;0.30;0.30;;;18.80;99.90;;;;;;5054433;28;20504;-76
2021/08/22 02:12:40;;;;;;;1.15;1.10;;;18.80;99.90;;;;;;5054559;28;20057;-76
2021/08/22 02:15:11;;;;;;;0.10;0.10;;;18.80;99.90;;;;;;5036520;28;20063;-76
2021/08/22 02:17:48;;;;;;;0.43;0.43;;;18.80;99.90;;;;;;5054722;28;20033;-76
2021/08/22 02:20:15;;;;;;;0.17;0.17;;;18.80;99.90;;;;;;5054149;28;20100;-76
2021/08/22 02:22:42;;;;;;;0.20;0.20;;;19.00;99.90;;;;;;5036372;28;20021;-76
2021/08/22 02:25:09;;;;;;;0.10;0.10;;;19.00;99.90;;;;;;5036408;28;20021;-76
2021/08/22 02:27:36;;;;;;;0.10;0.10;;;19.10;99.90;;;;;;5036403;28;20078;-75
2021/08/22 02:30:03;;;;;;;0.10;0.10;;;19.30;99.90;;;;;;5036514;28;20029;-76
2021/08/22 02:32:29;;;;;;;0.17;0.17;;;19.40;99.90;;;;;;5036455;28;20392;-76
2021/08/22 02:34:54;;;;;;;0.15;0.15;;;19.60;99.90;;;;;;5036324;28;20033;-76
2021/08/22 02:37:20;;;;;;;0.50;0.50;;;19.70;99.90;;;;;;5036135;28;20032;-76
2021/08/22 02:39:49;;;;;;;1.23;1.23;;;19.70;99.90;;;;;;5053793;28;20107;-76
2021/08/22 02:42:16;;;;;;;0.28;0.28;;;19.60;99.90;;;;;;5053925;28;20046;-76
2021/08/22 02:44:43;;;;;;;0.10;0.10;;;19.50;99.90;;;;;;5035888;28;20028;-74
2021/08/22 02:47:09;;;;;;;0.10;0.10;;;19.70;99.90;;;;;;5035845;28;20103;-74
2021/08/22 02:49:35;;;;;;;0.10;0.10;;;19.80;99.90;;;;;;5054056;28;20159;-74
2021/08/22 02:52:00;;;;;;;0.10;0.10;;;19.90;99.90;;;;;;5019380;28;20025;-74
2021/08/22 02:54:26;;;;;;;0.75;0.38;;;20.00;99.90;;;;;;5035617;28;20071;-74
2021/08/22 02:56:52;;;;;;;0.10;0.10;;;20.00;99.90;;;;;;5035735;28;20079;-74
2021/08/22 02:59:17;;;;;;;0.10;0.10;;;20.00;99.90;;;;;;5053359;28;20082;-74
2021/08/22 03:01:43;;;;;;;0.10;0.10;;;20.10;99.90;;;;;;5035785;28;20380;-74
2021/08/22 03:04:09;;;;;;;0.10;0.10;;;19.90;99.90;;;;;;5019041;28;20021;-74
2021/08/22 03:06:35;;;;;;;1.27;1.17;;;19.90;99.90;;;;;;5053382;28;20017;-74
2021/08/22 03:09:02;;;;;;;0.40;0.40;;;19.90;99.90;;;;;;5053424;28;20025;-74
2021/08/22 03:11:29;;;;;;;0.55;0.55;;;19.90;99.90;;;;;;5035443;28;20029;-74
2021/08/22 03:13:55;;;;;;;0.13;0.13;;;19.70;99.90;;;;;;5053298;28;20057;-74
2021/08/22 03:16:21;;;;;;;0.75;0.30;;;19.50;99.90;;;;;;5035250;28;20032;-74
2021/08/22 03:18:46;;;;;;;0.00;0.00;;;19.50;99.90;;;;;;5052955;28;20425;-74
2021/08/22 03:21:12;;;;;;;0.08;0.08;;;19.60;99.90;;;;;;5053169;28;20017;-74
2021/08/22 03:23:38;;;;;;;0.10;0.10;;;19.40;99.90;;;;;;5053040;28;20041;-74
2021/08/22 03:26:03;;;;;;;1.08;0.52;;;19.20;99.90;;;;;;5018600;28;20475;-73
2021/08/22 03:28:29;;;;;;;0.20;0.20;;;19.10;99.90;;;;;;5052462;28;20024;-74
2021/08/22 03:30:55;;;;;;;0.35;0.35;;;19.20;99.90;;;;;;5052996;28;20376;-74
2021/08/22 03:33:21;;;;;;;0.15;0.15;;;19.20;99.90;;;;;;5052924;28;20021;-74
2021/08/22 03:35:47;;;;;;;0.55;0.55;;;19.20;99.90;;;;;;5018614;28;20028;-74
2021/08/22 03:38:13;;;;;;;0.10;0.10;;;19.20;99.90;;;;;;5034985;28;20104;-74
2021/08/22 03:40:40;;;;;;;0.10;0.10;;;19.20;99.90;;;;;;5034805;28;20128;-74
2021/08/22 03:43:05;;;;;;;4.53;0.98;;;19.20;99.90;;;;;;5034853;28;20045;-74
2021/08/22 03:45:31;;;;;;;0.20;0.20;;;19.10;99.90;;;;;;5052374;28;20055;-74
2021/08/22 03:47:57;;;;;;;1.85;1.42;;;19.10;99.90;;;;;;5052492;28;20036;-74
2021/08/22 03:50:23;;;;;;;2.78;1.40;;;19.10;99.90;;;;;;5034719;28;20032;-74
2021/08/22 03:52:51;;;;;;;1.80;1.63;;;18.90;99.90;;;;;;5034968;28;20361;-76
2021/08/22 03:55:20;;;;;;;2.88;1.63;;;18.80;99.90;;;;;;5034692;28;20048;-76
2021/08/22 03:57:45;;;;;;;0.80;0.75;;;18.70;99.90;;;;;;5017951;28;20549;-76
2021/08/22 04:00:12;;;;;;;3.13;1.83;;;18.50;99.90;;;;;;5052285;28;20108;-75
2021/08/22 04:02:38;;;;;;;2.08;1.58;;;18.50;99.90;;;;;;5052428;28;20020;-76
2021/08/22 04:05:07;;;;;;;2.40;1.48;;;18.20;99.90;;;;;;5052251;28;20097;-75
2021/08/22 04:07:33;;;;;;;2.25;1.23;;;18.00;99.90;;;;;;5052434;28;20028;-76
2021/08/22 04:09:59;;;;;;;1.35;0.75;;;17.80;99.90;;;;;;5018036;28;20558;-76
2021/08/22 04:12:26;;;;;;;1.38;1.27;;;17.70;99.90;;;;;;5052218;28;20033;-76
2021/08/22 04:14:52;;;;;;;0.90;0.65;;;17.70;99.90;;;;;;5034488;28;20035;-76
2021/08/22 04:17:18;;;;;;;2.17;1.33;;;17.70;99.90;;;;;;5034372;28;20033;-76
2021/08/22 04:19:44;;;;;;;0.30;0.30;;;17.70;99.90;;;;;;5034321;28;20029;-75
2021/08/22 04:22:10;;;;;;;0.82;0.38;;;17.50;99.90;;;;;;5034105;28;20385;-75
2021/08/22 04:24:37;;;;;;;0.32;0.32;;;17.40;99.90;;;;;;5052385;28;20033;-76
2021/08/22 04:27:04;;;;;;;1.38;0.70;;;17.40;99.90;;;;;;5017618;28;20044;-75
2021/08/22 04:29:31;;;;;;;0.60;0.57;;;17.30;99.90;;;;;;5017441;28;20108;-75
2021/08/22 04:31:56;;;;;;;0.10;0.10;;;17.20;99.90;;;;;;5051946;28;20025;-76
2021/08/22 04:34:22;;;;;;;4.68;0.73;;;17.10;99.90;;;;;;5051885;28;20040;-76
2021/08/22 04:36:48;;;;;;;1.10;0.90;;;17.10;99.90;;;;;;5051830;28;20032;-76
2021/08/22 04:39:15;;;;;;;2.88;1.17;;;17.10;99.90;;;;;;5033256;28;20029;-76
2021/08/22 04:41:45;;;;;;;2.97;1.15;;;17.00;99.90;;;;;;5033962;28;20067;-76
2021/08/22 04:44:14;;;;;;;4.30;1.38;;;16.90;99.90;;;;;;5052061;28;20544;-76
2021/08/22 04:46:41;;;;;;;20.27;3.63;;;16.80;99.90;;;;;;5051670;28;20055;-76
2021/08/22 04:49:07;;;;;;;4.63;1.17;;;16.70;99.90;;;;;;5051535;28;20112;-76
2021/08/22 04:51:33;;;;;;;2.85;1.52;;;16.60;99.90;;;;;;5051550;28;20442;-76
2021/08/22 04:53:58;;;;;;;0.28;0.28;;;16.50;99.90;;;;;;5034035;28;20056;-76
2021/08/22 04:56:24;;;;;;;1.38;0.55;;;16.40;99.90;;;;;;5051571;28;20104;-75
2021/08/22 04:58:50;;;;;;;0.60;0.32;;;16.30;99.90;;;;;;5051570;28;20477;-76
2021/08/22 05:01:16;;;;;;;0.30;0.30;;;16.40;99.90;;;;;;5051671;28;20021;-76
2021/08/22 05:03:42;;;;;;;1.02;0.80;;;16.50;99.90;;;;;;5051697;28;20060;-75
2021/08/22 05:06:09;;;;;;;0.00;0.00;;;16.40;99.90;;;;;;5051444;28;20028;-76
2021/08/22 05:08:35;;;;;;;0.55;0.55;;;16.50;99.90;;;;;;5051467;28;20025;-76
2021/08/22 05:11:00;;;;;;;2.38;1.27;;;16.50;99.90;;;;;;5033766;28;20031;-76
2021/08/22 05:13:27;;;;;;;1.00;0.88;;;16.40;99.90;;;;;;5051624;28;20035;-76
2021/08/22 05:15:55;;;;;;;3.60;1.08;;;16.30;99.90;;;;;;5051346;28;20090;-75
2021/08/22 05:18:22;;;;;;;0.10;0.10;;;16.40;99.90;;;;;;5016928;28;20477;-76
2021/08/22 05:20:48;;;;;;;0.20;0.20;;;16.60;99.90;;;;;;5016980;28;20021;-76
2021/08/22 05:23:15;;;;;;;0.13;0.13;;;16.70;99.90;;;;;;5033633;28;20028;-76
2021/08/22 05:25:41;;;;;;;0.10;0.10;;;17.00;99.90;;;;;;5051365;28;20377;-76
2021/08/22 05:28:07;;;;;;;0.30;0.30;;;17.30;99.90;;;;;;5051255;28;20025;-76
2021/08/22 05:30:33;;;;;;;0.10;0.10;;;17.50;99.90;;;;;;5017144;28;20177;-76
2021/08/22 05:32:58;;;;;;;0.47;0.47;;;17.60;99.90;;;;;;5033372;28;20554;-76
2021/08/22 05:35:24;;;;;;;0.10;0.10;;;17.30;99.90;;;;;;5033810;28;20029;-76
2021/08/22 05:37:50;;;;;;;0.10;0.10;;;17.30;99.90;;;;;;5050980;28;20104;-76
2021/08/22 05:40:15;;;;;;;0.10;0.10;;;17.50;99.90;;;;;;5033470;28;20021;-76
2021/08/22 05:42:41;;;;;;;0.20;0.20;;;17.50;99.90;;;;;;5051107;28;20032;-76
2021/08/22 05:45:08;;;;;;;0.10;0.10;;;17.50;99.90;;;;;;5033490;28;20025;-76
2021/08/22 05:47:33;;;;;;;0.22;0.22;;;17.50;99.90;;;;;;5050872;28;20538;-75
2021/08/22 05:49:59;;;;;;;0.30;0.30;;;17.50;99.90;;;;;;5033516;28;20029;-76
2021/08/22 05:52:25;;;;;;;0.45;0.43;;;17.60;99.90;;;;;;5036083;28;20021;-76
2021/08/22 05:54:50;;;;;;;0.10;0.10;;;17.50;99.90;;;;;;5054992;28;20107;-76
2021/08/22 05:57:16;;;;;;;1.58;1.20;;;17.30;99.90;;;;;;5037081;28;20029;-76
2021/08/22 05:59:42;;;;;;;0.63;0.63;;;17.20;99.90;;;;;;5036713;28;20025;-76
2021/08/22 06:02:07;;;;;;;0.20;0.20;;;17.00;99.90;;;;;;5036647;28;20033;-76
2021/08/22 06:04:33;;;;;;;0.20;0.20;;;17.00;99.90;;;;;;5054723;28;20130;-76
2021/08/22 06:06:59;;;;;;;0.20;0.20;;;17.00;99.90;;;;;;5054519;28;20028;-76
2021/08/22 06:09:28;;;;;;;0.10;0.10;;;17.20;99.90;;;;;;5036520;28;20029;-76
2021/08/22 06:11:53;;;;;;;0.10;0.10;;;17.40;99.90;;;;;;5041489;28;20029;-76
2021/08/22 06:14:19;;;;;;;0.55;0.50;;;17.60;99.90;;;;;;5055900;28;20039;-76
2021/08/22 06:16:45;;;;;;;0.10;0.10;;;17.40;99.90;;;;;;5059888;28;20029;-76
2021/08/22 06:19:10;;;;;;;0.70;0.20;;;17.30;99.90;;;;;;5023448;28;20120;-76
2021/08/22 06:21:38;;;;;;;0.22;0.22;;;17.10;99.90;;;;;;5036226;28;20040;-76
2021/08/22 06:24:04;;;;;;;0.40;0.40;;;17.00;99.90;;;;;;5049780;28;20052;-76
2021/08/22 06:26:30;;;;;;;0.10;0.10;;;17.10;99.90;;;;;;5056152;28;20078;-76
2021/08/22 06:28:56;;;;;;;0.10;0.10;;;17.20;99.90;;;;;;5052485;28;20056;-76
2021/08/22 06:31:21;;;;;;;4.07;1.10;;;17.30;99.90;;;;;;5027145;28;20032;-76
2021/08/22 06:33:47;;;;;;;0.10;0.10;;;17.30;99.90;;;;;;5036196;28;20063;-76
2021/08/22 06:36:13;;;;;;;0.10;0.10;;;17.40;99.90;;;;;;5053930;28;20021;-76
2021/08/22 06:38:39;;;;;;;0.10;0.10;;;17.60;99.90;;;;;;5054281;28;20099;-75
2021/08/22 06:41:05;;;;;;;0.10;0.10;;;17.70;99.90;;;;;;5056142;28;20017;-76
2021/08/22 06:43:31;;;;;;;0.85;0.85;;;17.90;99.90;;;;;;5055747;28;20116;-76
2021/08/22 06:45:57;;;;;;;0.10;0.10;;;18.10;99.90;;;;;;5047172;28;20120;-76
2021/08/22 06:48:23;;;;;;;0.10;0.10;;;18.30;99.90;;;;;;5056739;28;20016;-76
2021/08/22 06:50:49;;;;;;;0.10;0.10;;;18.30;99.90;;;;;;5055828;28;20103;-75
2021/08/22 06:53:15;;;;;;;0.10;0.10;;;18.40;99.90;;;;;;5073606;28;20024;-76
2021/08/22 06:55:42;;;;;;;0.10;0.10;;;18.40;99.90;;;;;;5073484;28;20391;-76
2021/08/22 06:58:08;;;;;;;0.10;0.10;;;18.60;99.90;;;;;;5073540;28;20040;-76
2021/08/22 07:00:34;;;;;;;0.20;0.20;;;18.60;99.90;;;;;;5055614;28;20024;-76
2021/08/22 07:03:00;;;;;;;0.63;0.50;;;18.50;99.90;;;;;;5064397;28;20469;-76
2021/08/22 07:05:26;;;;;;;0.10;0.10;;;18.60;99.90;;;;;;5035614;28;20052;-76
2021/08/22 07:07:52;;;;;;;0.10;0.10;;;18.70;99.90;;;;;;5035188;28;20029;-76
2021/08/22 07:10:18;;;;;;;0.20;0.20;;;18.70;99.90;;;;;;5053308;28;20033;-76
2021/08/22 07:12:43;;;;;;;0.10;0.10;;;18.70;99.90;;;;;;5035350;28;20028;-76
2021/08/22 07:15:12;;;;;;;0.20;0.20;;;18.50;99.90;;;;;;5052727;28;20500;-76
2021/08/22 07:17:38;;;;;;;0.00;0.00;;;18.30;99.90;;;;;;5052840;28;20395;-76
2021/08/22 07:20:04;;;;;;;0.55;0.50;;;18.10;99.90;;;;;;5035245;28;20025;-76
2021/08/22 07:22:30;;;;;;;0.82;0.82;;;18.10;99.90;;;;;;5020891;28;20013;-76
2021/08/22 07:24:58;;;;;;;0.60;0.52;;;18.30;99.90;;;;;;5024796;28;20079;-76
2021/08/22 07:27:25;;;;;;;0.50;0.45;;;18.20;99.90;;;;;;5035003;28;20017;-76
2021/08/22 07:29:51;;;;;;;0.75;0.75;;;18.30;99.90;;;;;;5052731;28;20025;-76
2021/08/22 07:32:17;;;;;;;1.27;1.27;;;18.20;99.90;;;;;;5033844;28;20047;-76
2021/08/22 07:34:43;;;;;;;0.10;0.10;;;18.30;99.90;;;;;;5033984;28;20017;-76
2021/08/22 07:37:09;;;;;;;0.10;0.10;;;18.40;99.90;;;;;;5033504;28;20027;-76
2021/08/22 07:39:35;;;;;;;0.35;0.10;;;18.40;99.90;;;;;;5052193;28;20423;-76
2021/08/22 07:42:02;;;;;;;0.10;0.10;;;18.60;99.90;;;;;;5032822;28;20027;-76
2021/08/22 07:44:28;;;;;;;0.10;0.10;;;18.50;99.90;;;;;;5034352;28;20021;-76
2021/08/22 07:46:54;;;;;;;0.10;0.10;;;18.70;99.90;;;;;;5018371;28;20449;-76
2021/08/22 07:49:19;;;;;;;0.10;0.10;;;18.60;99.90;;;;;;5034511;28;20057;-76
2021/08/22 07:51:49;;;;;;;0.10;0.10;;;18.80;99.90;;;;;;5034744;28;20025;-76
2021/08/22 07:54:15;;;;;;;0.00;0.00;;;18.90;99.90;;;;;;5052429;28;20024;-76
2021/08/22 07:56:42;;;;;;;0.10;0.10;;;18.90;99.90;;;;;;5034137;28;20036;-76
2021/08/22 07:59:08;;;;;;;0.00;0.00;;;19.10;99.90;;;;;;5034343;28;20029;-76
2021/08/22 08:01:34;;;;;;;1.90;0.43;;;19.10;99.90;;;;;;5052342;28;20021;-76
2021/08/22 08:04:00;;;;;;;0.10;0.10;;;19.20;99.90;;;;;;5052229;28;20025;-76
2021/08/22 08:06:26;;;;;;;0.08;0.08;;;19.30;99.90;;;;;;5051462;28;20471;-76
2021/08/22 08:08:51;;;;;;;0.00;0.00;;;19.30;99.90;;;;;;5050787;28;20029;-76
2021/08/22 08:11:17;;;;;;;0.10;0.10;;;19.30;99.90;;;;;;5054577;28;20033;-76
2021/08/22 08:13:43;;;;;;;0.10;0.10;;;19.30;99.90;;;;;;5034193;28;20021;-76
2021/08/22 08:16:08;;;;;;;0.10;0.10;;;19.30;99.90;;;;;;5050639;28;20091;-76
2021/08/22 08:18:34;;;;;;;0.10;0.10;;;19.50;99.90;;;;;;5033782;28;20489;-76
2021/08/22 08:21:02;;;;;;;0.10;0.10;;;19.60;99.90;;;;;;5017593;28;20036;-76
2021/08/22 08:23:28;;;;;;;0.10;0.10;;;19.70;99.90;;;;;;5034155;28;20037;-76
2021/08/22 08:25:54;;;;;;;0.10;0.10;;;19.40;99.90;;;;;;5034028;28;20435;-76
2021/08/22 08:28:20;;;;;;;0.10;0.10;;;19.50;99.90;;;;;;5035196;28;20447;-76
2021/08/22 08:30:46;;;;;;;0.10;0.10;;;19.70;99.90;;;;;;5017644;28;20493;-75
2021/08/22 08:33:12;;;;;;;0.10;0.10;;;19.70;99.90;;;;;;5052400;28;20068;-76
2021/08/22 08:35:38;;;;;;;0.10;0.10;;;19.90;99.90;;;;;;5052082;28;20033;-76
2021/08/22 08:38:03;;;;;;;0.10;0.10;;;19.90;99.90;;;;;;5052671;28;20127;-77
2021/08/22 08:40:29;;;;;;;0.10;0.10;;;19.80;99.90;;;;;;5035139;28;20024;-76
2021/08/22 08:43:01;;;;;;;0.05;0.05;;;19.80;99.90;;;;;;5034111;28;20362;-76
2021/08/22 08:45:45;;;;;;;;;;;19.90;99.90;;;;;;5034354;28;20481;-76
2021/08/22 08:48:11;;;;;;;0.57;0.20;;;19.90;99.90;;;;;;5033796;28;19971;-76
2021/08/22 08:50:48;;;;;;;0.10;0.10;;;19.80;99.90;;;;;;5051790;28;20085;-76
2021/08/22 08:53:36;;;;;;;0.30;0.30;;;19.90;99.90;;;;;;5051816;28;20056;-76
2021/08/22 08:56:12;;;;;;;0.10;0.10;;;19.80;99.90;;;;;;5033970;28;20404;-76
2021/08/22 08:58:37;;;;;;;0.63;0.38;;;19.80;99.90;;;;;;5051589;28;20036;-76
2021/08/22 09:01:03;;;;;;;0.35;0.35;;;19.70;99.90;;;;;;5051581;28;20025;-76
2021/08/22 09:03:29;;;;;;;0.10;0.10;;;19.60;99.90;;;;;;5016866;28;20067;-76
2021/08/22 09:06:13;;;;;;;0.10;0.10;;;19.60;99.90;;;;;;5040625;28;20013;-76
2021/08/22 09:08:53;;;;;;;0.95;0.90;;;19.70;99.90;;;;;;5062875;28;20099;-76
2021/08/22 09:11:22;;;;;;;0.10;0.10;;;19.60;99.90;;;;;;5051428;28;20021;-76
2021/08/22 09:14:09;;;;;;;0.10;0.10;;;19.80;99.90;;;;;;5033885;28;20036;-76
2021/08/22 09:17:06;;;;;;;0.63;0.63;;;19.90;99.90;;;;;;5033674;28;20120;-76
2021/08/22 09:20:19;;;;;;;0.10;0.10;;;19.90;99.90;;;;;;5016907;28;20112;-76
2021/08/22 09:23:09;;;;;;;0.05;0.05;;;19.90;99.90;;;;;;5051618;28;20033;-76
2021/08/22 09:25:56;;;;;;;0.10;0.10;;;20.00;99.90;;;;;;5051522;28;20413;-76
2021/08/22 09:29:02;;;;;;;0.30;0.30;;;19.90;99.90;;;;;;5055238;28;20052;-76
2021/08/22 09:32:14;;;;;;;0.10;0.10;;;19.90;99.90;;;;;;5037154;28;20648;-76
2021/08/22 09:35:14;;;;;;;0.10;0.10;;;20.00;99.90;;;;;;5055845;28;20029;-76
2021/08/22 09:38:01;;;;;;;0.10;0.10;;;20.00;99.90;;;;;;5039710;28;20039;-76
2021/08/22 09:40:36;;;;;;;0.10;0.10;;;20.10;99.90;;;;;;5058043;28;20468;-76
2021/08/22 09:43:39;;;;;;;0.10;0.10;;;20.20;99.90;;;;;;5058097;28;20464;-76
2021/08/22 09:46:43;;;;;;;0.10;0.10;;;20.20;99.90;;;;;;5073433;28;20027;-76
2021/08/22 09:49:28;;;;;;;0.00;0.00;;;20.40;99.90;;;;;;5072938;28;20029;-75
2021/08/22 09:52:19;;;;;;;0.03;0.03;;;20.60;99.90;;;;;;5055040;28;20086;-76
2021/08/22 09:55:12;;;;;;;0.10;0.10;;;20.70;99.90;;;;;;5054924;28;20020;-76
2021/08/22 09:57:47;;;;;;;0.10;0.10;;;20.90;99.90;;;;;;5055334;28;20075;-75
2021/08/22 10:00:50;;;;;;;0.10;0.10;;;21.10;99.90;;;;;;5073524;28;20515;-76
2021/08/22 10:03:40;;;;;;;0.10;0.10;;;21.20;99.90;;;;;;5056957;28;20096;-76
2021/08/22 10:06:10;;;;;;;0.00;0.00;;;21.20;99.90;;;;;;5075316;28;20025;-77
2021/08/22 10:08:59;;;;;;;0.10;0.10;;;21.30;99.90;;;;;;5057767;28;20103;-76
2021/08/22 10:11:40;;;;;;;0.10;0.10;;;21.40;99.90;;;;;;5040022;28;20029;-75
2021/08/22 10:14:10;;;;;;;0.95;0.82;;;21.40;99.90;;;;;;5074534;28;20046;-75
2021/08/22 10:16:37;;;;;;;0.10;0.10;;;21.40;99.90;;;;;;5057497;28;20021;-75
2021/08/22 10:19:07;;;;;;;0.10;0.10;;;21.40;99.90;;;;;;5074804;28;20051;-76
2021/08/22 10:21:34;;;;;;;0.10;0.10;;;21.30;99.90;;;;;;5057513;28;20070;-77
2021/08/22 10:24:29;;;;;;;0.10;0.10;;;21.30;99.90;;;;;;5041109;28;20028;-77
2021/08/22 10:26:57;;;;;;;0.08;0.08;;;21.40;99.90;;;;;;5057310;28;20020;-77
2021/08/22 10:29:27;;;;;;;0.30;0.30;;;21.50;99.90;;;;;;5059126;28;20031;-77
2021/08/22 10:31:54;;;;;;;0.10;0.10;;;21.40;99.90;;;;;;5059329;28;20107;-77
2021/08/22 10:34:26;;;;;;;0.10;0.10;;;21.40;99.90;;;;;;5077068;28;20025;-76
2021/08/22 10:36:53;;;;;;;0.10;0.10;;;21.40;99.90;;;;;;5059267;28;20016;-77
2021/08/22 10:39:27;;;;;;;0.45;0.45;;;21.60;99.90;;;;;;5076558;28;20028;-78
2021/08/22 10:42:00;;;;;;;0.20;0.20;;;21.50;99.90;;;;;;5059445;28;20048;-77
2021/08/22 10:44:41;;;;;;;0.10;0.10;;;21.70;99.90;;;;;;5075731;28;20017;-76
2021/08/22 10:47:12;;;;;;;2.37;0.83;;;21.80;99.90;;;;;;5056106;28;20033;-76
2021/08/22 10:49:50;;;;;;;0.10;0.10;;;21.70;99.90;;;;;;5073755;28;20433;-76
2021/08/22 10:52:23;;;;;;;0.08;0.08;;;21.60;99.90;;;;;;5073798;28;20434;-76
2021/08/22 10:55:12;;;;;;;0.15;0.15;;;21.70;99.90;;;;;;5073738;28;20074;-76
2021/08/22 10:57:44;;;;;;;0.25;0.25;;;21.70;99.90;;;;;;5075096;28;20769;-76
2021/08/22 11:00:20;;;;;;;0.10;0.10;;;21.80;99.90;;;;;;5055782;28;20025;-76
2021/08/22 11:02:46;;;;;;;0.10;0.10;;;21.90;99.90;;;;;;5055756;28;20115;-76
2021/08/22 11:05:19;;;;;;;0.10;0.10;;;22.00;99.90;;;;;;5073491;28;20101;-76
2021/08/22 11:07:51;;;;;;;0.40;0.40;;;22.00;99.90;;;;;;5055494;28;20024;-76
2021/08/22 11:10:18;;;;;;;;;;;22.30;99.90;;;;;;5073967;28;20029;-73
2021/08/22 11:12:44;;;;;;;0.08;0.08;;;22.30;99.90;;;;;;5055451;28;19908;-76
2021/08/22 11:15:22;;;;;;;0.00;0.00;;;22.20;99.90;;;;;;5071461;28;20164;-76
2021/08/22 11:17:56;;;;;;;0.00;0.00;;;22.00;99.90;;;;;;5044072;28;20052;-75
2021/08/22 11:20:27;;;;;;;0.10;0.10;;;22.00;99.90;;;;;;5046042;28;20067;-76
2021/08/22 11:23:03;;;;;;;0.00;0.00;;;21.90;99.90;;;;;;5035415;28;20033;-75
2021/08/22 11:25:30;;;;;;;1.77;1.27;;;21.80;99.90;;;;;;5039851;28;20021;-75
2021/08/22 11:28:13;;;;;;;1.27;0.85;;;21.60;99.90;;;;;;5052825;28;20048;-76
2021/08/22 11:30:40;;;;;;;0.10;0.10;;;21.40;99.90;;;;;;5052944;28;20040;-75
2021/08/22 11:33:07;;;;;;;0.40;0.40;;;21.30;99.90;;;;;;5039749;28;20029;-75
2021/08/22 11:35:44;;;;;;;0.90;0.90;;;21.30;99.90;;;;;;5035223;28;20392;-75
2021/08/22 11:38:12;;;;;;;0.35;0.20;;;21.10;99.90;;;;;;5050773;28;20087;-76
2021/08/22 11:40:38;;;;;;;0.63;0.63;;;21.00;99.90;;;;;;5050944;28;20021;-76
2021/08/22 11:43:06;;;;;;;0.05;0.05;;;21.00;99.90;;;;;;5032912;28;20117;-75
2021/08/22 11:45:41;;;;;;;0.10;0.10;;;21.00;99.90;;;;;;5050866;28;20017;-74
2021/08/22 11:48:14;;;;;;;0.10;0.10;;;21.20;99.90;;;;;;5016018;28;20028;-75
2021/08/22 11:50:40;;;;;;;0.10;0.10;;;21.20;99.90;;;;;;5032686;28;20028;-75
2021/08/22 11:53:07;;;;;;;0.30;0.30;;;21.40;99.90;;;;;;5034404;28;20025;-75
2021/08/22 11:55:35;;;;;;;0.10;0.10;;;21.50;99.90;;;;;;5052518;28;20028;-75
2021/08/22 11:58:19;;;;;;;0.20;0.20;;;21.60;99.90;;;;;;5052212;28;20135;-76
2021/08/22 12:00:55;;;;;;;0.20;0.15;;;21.60;99.90;;;;;;5052619;28;20048;-75
2021/08/22 12:03:23;;;;;;;3.92;1.35;;;21.50;99.90;;;;;;5034642;28;20079;-75
2021/08/22 12:06:01;;;;;;;0.55;0.47;;;21.30;99.90;;;;;;5034483;28;20017;-75
2021/08/22 12:08:28;;;;;;;0.10;0.10;;;21.20;99.90;;;;;;5034389;28;20021;-75
2021/08/22 12:11:22;;;;;;;0.10;0.10;;;21.20;99.90;;;;;;5034326;28;20029;-75
2021/08/22 12:13:49;;;;;;;0.10;0.10;;;21.30;99.90;;;;;;5017951;28;20128;-76
2021/08/22 12:16:33;;;;;;;0.43;0.38;;;21.20;99.90;;;;;;5017810;28;20067;-75
2021/08/22 12:19:20;;;;;;;2.90;1.02;;;21.20;99.90;;;;;;5033977;28;20025;-75
2021/08/22 12:21:47;;;;;;;0.00;0.00;;;21.00;99.90;;;;;;5034203;28;20021;-76
2021/08/22 12:24:25;;;;;;;0.10;0.10;;;21.20;99.90;;;;;;5034105;28;20582;-75
2021/08/22 12:26:52;;;;;;;1.73;0.90;;;21.20;99.90;;;;;;5017803;28;20024;-75
2021/08/22 12:31:48;;;;;;;0.10;0.10;;;21.20;99.90;;;;;;5030807;28;20077;-74
2021/08/22 12:34:17;;;;;;;0.10;0.10;;;21.20;99.90;;;;;;5031897;28;20063;-74
2021/08/22 12:36:46;;;;;;;0.80;0.47;;;21.30;99.90;;;;;;5014319;28;20029;-74
2021/08/22 12:39:15;;;;;;;0.10;0.10;;;21.30;99.90;;;;;;5031737;28;20028;-74
2021/08/22 12:41:51;;;;;;;0.10;0.10;;;21.30;99.90;;;;;;5014285;28;20048;-74
2021/08/22 12:44:28;;;;;;;0.10;0.10;;;21.30;99.90;;;;;;5031800;28;20168;-74
2021/08/22 12:47:02;;;;;;;0.03;0.03;;;21.30;99.90;;;;;;5031961;28;20017;-74
2021/08/22 12:49:30;;;;;;;0.10;0.10;;;21.20;99.90;;;;;;5014183;28;20104;-74
2021/08/22 12:51:58;;;;;;;0.10;0.10;;;21.30;99.90;;;;;;5014208;28;20029;-74
2021/08/22 12:54:25;;;;;;;0.00;0.00;;;21.30;99.90;;;;;;5014136;28;20025;-74
2021/08/22 12:56:52;;;;;;;0.10;0.10;;;21.30;99.90;;;;;;5014145;28;20504;-74
2021/08/22 12:59:18;;;;;;;0.68;0.68;;;21.60;99.90;;;;;;5031665;28;20052;-74
2021/08/22 13:01:45;;;;;;;0.20;0.20;;;21.70;99.90;;;;;;5016164;28;20021;-74
2021/08/22 13:04:13;;;;;;;0.08;0.08;;;21.70;99.90;;;;;;5035770;28;20104;-74
2021/08/22 13:06:39;;;;;;;0.30;0.30;;;21.70;99.90;;;;;;5035911;28;20377;-74